createdAt,value
2022-09-23T00:02:40.069Z,62.90
2022-09-23T00:05:43.219Z,63.05
2022-09-23T00:08:47.546Z,63.05
2022-09-23T00:11:50.231Z,63.26
2022-09-23T00:14:52.411Z,63.58
2022-09-23T00:17:55.100Z,63.39
2022-09-23T00:20:57.307Z,63.83
2022-09-23T00:24:00.261Z,63.97
2022-09-23T00:27:02.564Z,64.29
2022-09-23T00:30:07.131Z,64.83
2022-09-23T00:33:09.317Z,65.10
2022-09-23T00:36:16.105Z,65.42
2022-09-23T00:39:18.356Z,65.53
2022-09-23T00:42:22.811Z,65.85
2022-09-23T00:45:25.056Z,65.99
2022-09-23T00:48:28.118Z,66.17
2022-09-23T00:51:34.526Z,66.22
2022-09-23T00:54:37.583Z,66.35
2022-09-23T00:57:42.107Z,66.36
2022-09-23T01:00:46.464Z,66.23
2022-09-23T01:03:49.236Z,65.69
2022-09-23T01:06:52.155Z,65.59
2022-09-23T01:09:54.703Z,65.56
2022-09-23T01:13:03.503Z,65.80
2022-09-23T01:16:08.735Z,65.89
2022-09-23T01:19:31.929Z,66.14
2022-09-23T01:22:34.085Z,66.30
2022-09-23T01:25:36.920Z,66.12
2022-09-23T01:29:03.930Z,66.05
2022-09-23T01:32:12.899Z,66.01
2022-09-23T01:35:15.079Z,66.25
2022-09-23T01:38:37.301Z,66.24
2022-09-23T01:41:40.071Z,66.36
2022-09-23T01:44:53.211Z,66.30
2022-09-23T01:48:02.028Z,66.52
2022-09-23T01:51:08.503Z,66.45
2022-09-23T01:54:15.889Z,66.50
2022-09-23T01:57:22.859Z,66.18
2022-09-23T02:00:27.039Z,66.08
2022-09-23T02:03:44.989Z,65.96
2022-09-23T02:06:51.552Z,65.96
2022-09-23T02:09:57.882Z,65.98
2022-09-23T02:13:05.349Z,65.93
2022-09-23T02:16:11.707Z,65.95
2022-09-23T02:19:16.772Z,66.43
2022-09-23T02:22:34.550Z,66.56
2022-09-23T02:25:49.057Z,66.66
2022-09-23T02:28:56.788Z,66.84
2022-09-23T02:32:04.621Z,67.09
2022-09-23T02:35:25.621Z,67.13
2022-09-23T02:38:33.984Z,67.21
2022-09-23T02:41:44.686Z,67.44
2022-09-23T02:44:46.987Z,67.60
2022-09-23T02:47:53.508Z,67.63
2022-09-23T02:50:55.754Z,67.71
2022-09-23T02:53:58.783Z,67.93
2022-09-23T02:57:02.820Z,68.04
2022-09-23T03:00:06.427Z,68.07
2022-09-23T03:03:38.105Z,68.09
2022-09-23T03:06:47.177Z,68.36
2022-09-23T03:09:49.426Z,68.52
2022-09-23T03:13:11.251Z,68.40
2022-09-23T03:16:22.713Z,68.34
2022-09-23T03:19:30.289Z,68.53
2022-09-23T03:22:35.459Z,68.65
2022-09-23T03:25:39.819Z,68.58
2022-09-23T03:28:43.955Z,68.76
2022-09-23T03:31:47.107Z,69.02
2022-09-23T03:34:51.506Z,68.83
2022-09-23T03:37:59.621Z,68.64
2022-09-23T03:41:04.249Z,68.62
2022-09-23T03:44:08.155Z,68.85
2022-09-23T03:47:10.815Z,68.90
2022-09-23T03:50:13.978Z,69.13
2022-09-23T03:53:18.410Z,69.19
2022-09-23T03:56:21.057Z,69.68
2022-09-23T03:59:23.823Z,70.05
2022-09-23T04:02:26.938Z,70.24
2022-09-23T04:05:29.467Z,70.45
2022-09-23T04:08:31.934Z,70.39
2022-09-23T04:11:35.263Z,70.55
2022-09-23T04:14:37.928Z,70.41
2022-09-23T04:17:40.407Z,70.41
2022-09-23T04:20:42.858Z,70.58
2022-09-23T04:23:46.562Z,70.40
2022-09-23T04:26:53.451Z,70.57
2022-09-23T04:29:55.957Z,70.06
2022-09-23T04:32:58.328Z,69.96
2022-09-23T04:36:00.893Z,69.84
2022-09-23T04:39:03.536Z,69.43
2022-09-23T04:42:06.107Z,69.62
2022-09-23T04:45:08.817Z,69.69
2022-09-23T04:48:11.543Z,70.01
2022-09-23T04:51:16.060Z,69.94
2022-09-23T04:54:19.011Z,70.12
2022-09-23T04:57:21.431Z,69.83
2022-09-23T05:00:24.207Z,70.21
2022-09-23T05:03:26.623Z,70.34
2022-09-23T05:06:35.308Z,69.84
2022-09-23T05:09:38.552Z,69.64
2022-09-23T05:12:41.434Z,69.60
2022-09-23T05:15:43.979Z,69.93
2022-09-23T05:18:46.967Z,69.95
2022-09-23T05:21:49.454Z,70.03
2022-09-23T05:24:52.574Z,69.84
2022-09-23T05:27:55.086Z,69.44
2022-09-23T05:31:05.440Z,68.90
2022-09-23T05:34:08.062Z,68.67
2022-09-23T05:37:10.616Z,67.86
2022-09-23T05:40:13.129Z,68.02
2022-09-23T05:43:15.908Z,67.91
2022-09-23T05:46:23.406Z,67.71
2022-09-23T05:49:37.913Z,67.34
2022-09-23T05:52:48.595Z,67.17
2022-09-23T05:55:51.905Z,66.60
2022-09-23T05:58:55.581Z,66.50
2022-09-23T06:01:58.336Z,66.11
2022-09-23T06:05:01.078Z,65.53
2022-09-23T06:08:03.465Z,65.02
2022-09-23T06:11:07.741Z,64.63
2022-09-23T06:14:14.596Z,64.46
2022-09-23T06:17:17.346Z,64.14
2022-09-23T06:20:19.563Z,64.07
2022-09-23T06:23:25.627Z,63.76
2022-09-23T06:26:32.605Z,63.18
2022-09-23T06:29:37.578Z,62.81
2022-09-23T06:32:39.956Z,62.75
2022-09-23T06:35:55.339Z,62.82
2022-09-23T06:38:59.221Z,62.06
2022-09-23T06:42:01.999Z,61.67
2022-09-23T06:45:04.387Z,61.56
2022-09-23T06:48:09.502Z,60.48
2022-09-23T06:51:23.131Z,59.96
2022-09-23T06:54:28.426Z,59.72
2022-09-23T06:57:31.102Z,59.14
2022-09-23T07:00:33.839Z,58.47
2022-09-23T07:03:36.439Z,57.70
2022-09-23T07:06:39.249Z,55.98
2022-09-23T07:09:41.718Z,55.15
2022-09-23T07:12:44.652Z,54.21
2022-09-23T07:15:53.921Z,53.81
2022-09-23T07:18:57.126Z,52.65
2022-09-23T07:21:59.331Z,51.52
2022-09-23T07:25:02.003Z,50.61
2022-09-23T07:28:04.891Z,49.84
2022-09-23T07:31:09.892Z,48.77
2022-09-23T07:34:12.236Z,47.32
2022-09-23T07:37:15.525Z,45.76
2022-09-23T07:40:17.763Z,44.62
2022-09-23T07:43:20.590Z,44.07
2022-09-23T07:46:22.904Z,41.19
2022-09-23T07:49:25.932Z,28.75
2022-09-23T07:52:28.166Z,20.81
2022-09-23T07:55:30.864Z,16.60
2022-09-23T07:58:33.971Z,14.52
2022-09-23T08:01:41.279Z,13.78
2022-09-23T08:04:44.136Z,14.95
2022-09-23T08:07:46.515Z,16.88
2022-09-23T08:10:49.099Z,18.45
2022-09-23T08:13:51.631Z,21.58
2022-09-23T08:16:54.243Z,23.07
2022-09-23T08:19:56.660Z,24.58
2022-09-23T08:22:59.457Z,25.36
2022-09-23T08:26:05.391Z,25.68
2022-09-23T08:29:10.140Z,26.42
2022-09-23T08:32:12.629Z,26.38
2022-09-23T08:35:15.516Z,26.20
2022-09-23T08:38:18.031Z,26.67
2022-09-23T08:41:26.569Z,26.54
2022-09-23T08:44:32.436Z,26.31
2022-09-23T08:47:47.257Z,26.39
2022-09-23T08:50:53.697Z,26.80
2022-09-23T08:53:56.332Z,26.82
2022-09-23T08:56:59.785Z,26.39
2022-09-23T09:00:05.870Z,27.09
2022-09-23T09:03:24.938Z,26.59
2022-09-23T09:06:51.718Z,25.89
2022-09-23T09:10:16.670Z,25.36
2022-09-23T09:13:43.329Z,25.07
2022-09-23T09:16:59.498Z,24.04
2022-09-23T09:20:03.538Z,24.70
2022-09-23T09:23:21.472Z,25.62
2022-09-23T09:26:25.394Z,26.50
2022-09-23T09:29:35.337Z,26.14
2022-09-23T09:32:48.397Z,25.73
2022-09-23T09:36:04.036Z,24.79
2022-09-23T09:39:11.361Z,24.10
2022-09-23T09:42:18.626Z,23.63
2022-09-23T09:45:21.246Z,23.32
2022-09-23T09:48:27.960Z,23.21
2022-09-23T09:51:30.513Z,22.38
2022-09-23T09:54:32.927Z,22.08
2022-09-23T09:57:46.084Z,21.98
2022-09-23T10:00:50.612Z,22.35
2022-09-23T10:03:59.226Z,22.50
2022-09-23T10:07:08.360Z,22.75
2022-09-23T10:10:31.770Z,22.57
2022-09-23T10:13:36.246Z,23.41
2022-09-23T10:16:41.500Z,24.44
2022-09-23T10:19:45.767Z,27.00
2022-09-23T10:22:48.685Z,27.79
2022-09-23T10:26:01.409Z,27.10
2022-09-23T10:29:19.421Z,25.84
2022-09-23T10:32:37.401Z,25.28
2022-09-23T10:35:53.793Z,24.20
2022-09-23T10:39:18.816Z,24.93
2022-09-23T10:42:45.149Z,26.03
2022-09-23T10:49:44.985Z,27.02
2022-09-23T10:52:47.390Z,28.87
2022-09-23T10:56:01.680Z,29.40
2022-09-23T10:59:10.342Z,29.71
2022-09-23T11:02:18.883Z,29.82
2022-09-23T11:05:30.720Z,28.32
2022-09-23T11:08:36.407Z,26.42
2022-09-23T11:11:41.900Z,26.04
2022-09-23T11:14:48.783Z,27.24
2022-09-23T11:18:03.167Z,27.44
2022-09-23T11:21:21.064Z,27.85
2022-09-23T11:24:29.566Z,28.65
2022-09-23T11:27:47.369Z,28.24
2022-09-23T11:31:14.580Z,28.87
2022-09-23T11:34:38.757Z,28.64
2022-09-23T11:37:45.191Z,28.92
2022-09-23T11:40:54.757Z,30.35
2022-09-23T11:44:16.243Z,30.71
2022-09-23T11:47:22.289Z,30.62
2022-09-23T11:50:37.016Z,31.15
2022-09-23T11:53:47.680Z,29.93
2022-09-23T11:56:52.020Z,26.42
2022-09-23T12:00:00.623Z,27.72
2022-09-23T12:03:32.949Z,26.76
2022-09-23T12:06:47.751Z,28.04
2022-09-23T12:10:00.404Z,29.46
2022-09-23T12:13:19.355Z,28.24
2022-09-23T12:16:41.087Z,28.74
2022-09-23T12:19:58.812Z,28.76
2022-09-23T12:23:13.315Z,28.00
2022-09-23T12:26:18.247Z,27.14
2022-09-23T12:29:21.063Z,28.68
2022-09-23T12:32:25.053Z,27.58
2022-09-23T12:35:35.578Z,27.86
2022-09-23T12:38:40.491Z,27.46
2022-09-23T12:41:46.332Z,27.04
2022-09-23T12:44:49.213Z,27.18
2022-09-23T12:47:51.665Z,26.55
2022-09-23T12:50:58.400Z,25.45
2022-09-23T12:54:03.807Z,23.68
2022-09-23T12:57:26.603Z,23.40
2022-09-23T13:00:34.079Z,23.00
2022-09-23T13:04:00.524Z,27.04
2022-09-23T13:07:07.821Z,28.96
2022-09-23T13:10:18.820Z,28.27
2022-09-23T13:13:44.895Z,27.72
2022-09-23T13:16:47.812Z,28.40
2022-09-23T13:19:59.046Z,29.69
2022-09-23T13:23:06.091Z,30.29
2022-09-23T13:26:13.571Z,30.83
2022-09-23T13:29:20.355Z,31.52
2022-09-23T13:32:25.827Z,32.12
2022-09-23T13:35:39.772Z,32.58
2022-09-23T13:38:42.337Z,33.24
2022-09-23T13:41:45.435Z,33.35
2022-09-23T13:44:48.246Z,34.28
2022-09-23T13:47:52.694Z,35.23
2022-09-23T13:50:55.412Z,35.30
2022-09-23T13:53:59.372Z,35.14
2022-09-23T13:57:02.563Z,35.27
2022-09-23T14:00:21.363Z,35.96
2022-09-23T14:03:37.237Z,35.47
2022-09-23T14:06:41.009Z,34.92
2022-09-23T14:09:45.007Z,35.11
2022-09-23T14:12:50.475Z,34.28
2022-09-23T14:15:57.592Z,33.87
2022-09-23T14:19:10.117Z,32.77
2022-09-23T14:22:26.504Z,33.01
2022-09-23T14:25:30.853Z,33.56
2022-09-23T14:28:33.684Z,33.86
2022-09-23T14:31:36.001Z,34.49
2022-09-23T14:34:44.932Z,35.13
2022-09-23T14:38:16.684Z,35.50
2022-09-23T14:41:28.393Z,36.06
2022-09-23T14:44:33.303Z,36.40
2022-09-23T14:47:36.036Z,36.49
2022-09-23T14:50:48.153Z,36.39
2022-09-23T14:53:50.955Z,36.58
2022-09-23T14:56:54.114Z,36.46
2022-09-23T15:00:20.153Z,36.66
2022-09-23T15:03:23.091Z,36.63
2022-09-23T15:06:26.423Z,36.42
2022-09-23T15:09:33.437Z,36.91
2022-09-23T15:12:36.484Z,37.07
2022-09-23T15:15:39.240Z,36.86
2022-09-23T15:18:46.112Z,36.83
2022-09-23T15:21:51.536Z,36.92
2022-09-23T15:24:55.173Z,36.92
2022-09-23T15:28:12.802Z,36.55
2022-09-23T15:31:16.779Z,36.79
2022-09-23T15:34:20.983Z,36.78
2022-09-23T15:37:23.684Z,36.82
2022-09-23T15:40:27.546Z,37.06
2022-09-23T15:43:30.397Z,37.13
2022-09-23T15:46:33.691Z,37.06
2022-09-23T15:49:39.073Z,36.50
2022-09-23T15:52:44.989Z,36.80
2022-09-23T15:55:50.231Z,36.50
2022-09-23T15:58:52.875Z,37.17
2022-09-23T16:01:56.970Z,37.67
2022-09-23T16:05:05.803Z,37.86
2022-09-23T16:08:09.743Z,38.28
2022-09-23T16:11:20.225Z,38.34
2022-09-23T16:14:22.700Z,38.32
2022-09-23T16:17:25.237Z,38.10
2022-09-23T16:20:29.771Z,38.03
2022-09-23T16:23:34.734Z,37.99
2022-09-23T16:26:39.677Z,37.93
2022-09-23T16:29:42.181Z,37.86
2022-09-23T16:32:44.604Z,37.88
2022-09-23T16:35:47.372Z,38.09
2022-09-23T16:38:49.809Z,38.61
2022-09-23T16:41:52.723Z,38.81
2022-09-23T16:44:55.132Z,38.67
2022-09-23T16:47:57.824Z,38.31
2022-09-23T16:51:04.477Z,38.73
2022-09-23T16:54:10.288Z,39.12
2022-09-23T16:57:13.342Z,39.45
2022-09-23T17:00:35.106Z,39.80
2022-09-23T17:03:40.927Z,39.89
2022-09-23T17:06:44.417Z,39.91
2022-09-23T17:09:46.847Z,40.17
2022-09-23T17:12:50.628Z,40.43
2022-09-23T17:15:53.694Z,40.72
2022-09-23T17:18:56.769Z,41.09
2022-09-23T17:21:59.348Z,41.36
2022-09-23T17:25:04.224Z,41.72
2022-09-23T17:28:06.664Z,42.08
2022-09-23T17:31:09.690Z,42.42
2022-09-23T17:34:12.273Z,42.80
2022-09-23T17:37:14.813Z,43.31
2022-09-23T17:40:18.802Z,43.80
2022-09-23T17:43:25.063Z,44.03
2022-09-23T17:46:30.943Z,44.25
2022-09-23T17:49:35.492Z,44.66
2022-09-23T17:52:37.992Z,44.80
2022-09-23T17:55:40.976Z,45.15
2022-09-23T17:58:44.135Z,45.75
2022-09-23T18:01:46.674Z,46.21
2022-09-23T18:04:49.764Z,46.50
2022-09-23T18:07:51.984Z,46.88
2022-09-23T18:10:54.670Z,47.43
2022-09-23T18:14:01.114Z,47.74
2022-09-23T18:17:03.858Z,48.15
2022-09-23T18:20:06.468Z,48.42
2022-09-23T18:23:09.226Z,48.72
2022-09-23T18:26:18.685Z,49.08
2022-09-23T18:29:21.455Z,49.65
2022-09-23T18:32:23.691Z,50.07
2022-09-23T18:35:26.533Z,50.21
2022-09-23T18:38:28.836Z,50.57
2022-09-23T18:41:31.644Z,51.05
2022-09-23T18:44:33.950Z,51.46
2022-09-23T18:47:56.416Z,51.41
2022-09-23T18:50:58.816Z,51.64
2022-09-23T18:54:02.449Z,52.46
2022-09-23T18:57:05.220Z,52.91
2022-09-23T19:00:09.491Z,53.15
2022-09-23T19:03:11.837Z,53.01
2022-09-23T19:06:20.539Z,53.05
2022-09-23T19:09:23.893Z,53.22
2022-09-23T19:12:26.690Z,53.09
2022-09-23T19:15:29.040Z,52.97
2022-09-23T19:18:32.665Z,53.09
2022-09-23T19:21:35.198Z,53.11
2022-09-23T19:24:38.119Z,52.98
2022-09-23T19:27:40.495Z,52.84
2022-09-23T19:30:43.492Z,52.84
2022-09-23T19:33:53.198Z,52.84
2022-09-23T19:36:59.064Z,53.07
2022-09-23T19:40:01.618Z,53.25
2022-09-23T19:43:05.542Z,53.46
2022-09-23T19:46:09.241Z,53.78
2022-09-23T19:49:13.920Z,53.73
2022-09-23T19:52:16.703Z,53.97
2022-09-23T19:55:20.052Z,54.17
2022-09-23T19:58:23.185Z,54.39
2022-09-23T20:01:26.854Z,54.38
2022-09-23T20:04:29.354Z,54.51
2022-09-23T20:07:31.973Z,54.79
2022-09-23T20:10:34.569Z,55.11
2022-09-23T20:13:37.746Z,55.20
2022-09-23T20:16:40.530Z,55.32
2022-09-23T20:19:44.540Z,55.31
2022-09-23T20:22:48.223Z,55.62
2022-09-23T20:26:18.716Z,55.98
2022-09-23T20:29:21.400Z,56.17
2022-09-23T20:32:25.580Z,56.25
2022-09-23T20:35:33.192Z,56.65
2022-09-23T20:38:36.210Z,57.69
2022-09-23T20:41:40.036Z,58.78
2022-09-23T20:44:44.109Z,60.07
2022-09-23T20:47:46.645Z,60.14
2022-09-23T20:50:51.253Z,60.21
2022-09-23T20:53:53.765Z,60.23
2022-09-23T20:56:56.361Z,60.18
2022-09-23T20:59:58.876Z,60.05
2022-09-23T21:03:02.670Z,60.03
2022-09-23T21:06:06.528Z,60.21
2022-09-23T21:09:09.060Z,60.28
2022-09-23T21:12:11.651Z,60.20
2022-09-23T21:15:14.372Z,60.03
2022-09-23T21:18:21.742Z,59.98
2022-09-23T21:21:25.426Z,59.78
2022-09-23T21:27:52.253Z,58.56
2022-09-23T21:30:57.652Z,58.75
2022-09-23T21:34:04.277Z,58.90
2022-09-23T21:37:07.139Z,58.83
2022-09-23T21:40:28.547Z,58.87
2022-09-23T21:43:33.269Z,58.93
2022-09-23T21:46:35.911Z,59.07
2022-09-23T21:49:38.574Z,59.29
2022-09-23T21:52:40.991Z,59.48
2022-09-23T21:55:43.477Z,59.49
2022-09-23T21:58:46.315Z,59.59
2022-09-23T22:01:53.965Z,59.71
2022-09-23T22:04:57.224Z,59.90
2022-09-23T22:07:59.480Z,59.80
2022-09-23T22:11:06.650Z,59.79
2022-09-23T22:14:10.401Z,59.76
2022-09-23T22:17:14.547Z,59.49
2022-09-23T22:20:17.035Z,59.61
2022-09-23T22:23:20.268Z,59.71
2022-09-23T22:26:23.242Z,59.89
2022-09-23T22:29:44.595Z,60.08
2022-09-23T22:32:54.331Z,60.44
2022-09-23T22:36:01.789Z,60.56
2022-09-23T22:39:05.192Z,60.90
2022-09-23T22:42:08.348Z,61.00
2022-09-23T22:45:11.953Z,60.78
2022-09-23T22:48:14.753Z,61.24
2022-09-23T22:51:16.928Z,61.46
2022-09-23T22:54:20.975Z,61.41
2022-09-23T22:57:23.380Z,61.37
2022-09-23T23:00:27.937Z,61.05
2022-09-23T23:03:33.044Z,61.13
2022-09-23T23:06:36.353Z,61.21
2022-09-23T23:09:39.219Z,61.01
2022-09-23T23:12:41.906Z,61.00
2022-09-23T23:15:44.186Z,60.98
2022-09-23T23:18:47.706Z,61.04
2022-09-23T23:21:50.755Z,61.39
2022-09-23T23:24:54.658Z,61.42
2022-09-23T23:27:56.948Z,61.91
2022-09-23T23:31:03.540Z,62.42
2022-09-23T23:34:07.315Z,62.50
2022-09-23T23:37:10.087Z,62.86
2022-09-23T23:40:12.326Z,63.26
2022-09-23T23:43:15.073Z,63.66
2022-09-23T23:46:18.145Z,63.95
2022-09-23T23:49:21.521Z,64.27
2022-09-23T23:52:24.869Z,64.17
2022-09-23T23:55:27.543Z,64.11
2022-09-23T23:58:29.930Z,64.09
